Time;durP1;ratioP1;P1;durP2;ratioP2;P2;SDS_P1;SDS_P2;PMS_P1;PMS_P2;Temp;Humidity;BMP_temperature;BMP_pressure;BME280_temperature;BME280_humidity;BME280_pressure;Samples;Min_cycle;Max_cycle;Signal;HPM_P1;HPM_P2
2021/07/31 00:01:01;;;;;;;13.83;9.18;;;;;;;17.05;86.76;97388.20;1707210;83;21567;-78
2021/07/31 00:03:27;;;;;;;11.38;8.25;;;;;;;17.09;85.47;97396.52;1706302;84;21355;-72
2021/07/31 00:05:53;;;;;;;14.47;9.85;;;;;;;16.98;87.57;97387.94;1707043;84;21055;-72
2021/07/31 00:08:19;;;;;;;12.23;9.48;;;;;;;16.96;87.43;97377.11;1706687;82;21084;-72
2021/07/31 00:10:45;;;;;;;13.95;9.60;;;;;;;16.91;87.62;97375.37;1707087;83;20993;-72
2021/07/31 00:13:11;;;;;;;13.68;9.13;;;;;;;16.89;86.97;97374.91;1706782;82;20898;-72
2021/07/31 00:15:37;;;;;;;14.55;9.90;;;;;;;16.83;87.28;97375.67;1707452;82;20898;-77
2021/07/31 00:18:03;;;;;;;19.80;8.70;;;;;;;16.82;87.08;97373.28;1706903;83;21466;-72
2021/07/31 00:20:29;;;;;;;11.43;8.80;;;;;;;16.84;85.88;97378.67;1707185;83;21169;-77
2021/07/31 00:22:55;;;;;;;12.98;8.40;;;;;;;16.75;87.19;97383.42;1706816;82;20831;-73
2021/07/31 00:25:21;;;;;;;12.28;8.83;;;;;;;16.79;86.17;97379.44;1686850;84;20921;-72
2021/07/31 00:27:47;;;;;;;9.95;8.48;;;;;;;16.71;86.37;97381.67;1706939;83;20930;-77
2021/07/31 00:30:12;;;;;;;12.37;9.33;;;;;;;16.64;86.80;97376.13;1703602;82;21588;-77
2021/07/31 00:32:38;;;;;;;16.10;9.03;;;;;;;16.59;86.33;97374.98;1699111;84;21315;-73
2021/07/31 00:35:05;;;;;;;13.72;10.53;;;;;;;16.55;85.86;97374.04;1699181;83;20930;-73
2021/07/31 00:37:31;;;;;;;13.18;9.45;;;;;;;16.45;86.99;97380.48;1699082;84;21014;-77
2021/07/31 00:39:57;;;;;;;11.25;9.03;;;;;;;16.42;87.95;97372.95;1699334;84;20961;-72
2021/07/31 00:42:23;;;;;;;14.07;9.30;;;;;;;16.41;87.62;97374.89;1698993;83;21041;-77
2021/07/31 00:44:49;;;;;;;11.63;7.85;;;;;;;16.42;87.23;97377.05;1699155;84;21166;-73
2021/07/31 00:47:15;;;;;;;11.08;9.25;;;;;;;16.45;88.10;97381.84;1699052;82;20870;-72
2021/07/31 00:49:41;;;;;;;12.88;8.93;;;;;;;16.48;87.60;97381.17;1699301;82;21548;-72
2021/07/31 00:52:07;;;;;;;15.35;8.25;;;;;;;16.52;86.67;97386.22;1699199;84;20911;-78
2021/07/31 00:54:33;;;;;;;13.75;8.18;;;;;;;16.56;86.69;97382.47;1699165;84;21344;-72
2021/07/31 00:56:59;;;;;;;14.05;8.38;;;;;;;16.63;86.71;97389.58;1699251;84;22077;-72
2021/07/31 00:59:25;;;;;;;15.13;8.58;;;;;;;16.63;86.56;97384.68;1699237;84;21564;-72
2021/07/31 01:01:51;;;;;;;11.33;8.43;;;;;;;16.59;86.23;97390.59;1699300;82;21037;-72
2021/07/31 01:04:17;;;;;;;11.78;7.67;;;;;;;16.53;85.31;97383.72;1699082;84;21552;-77
2021/07/31 01:06:43;;;;;;;14.10;8.23;;;;;;;16.43;85.14;97384.92;1699228;84;20819;-77
2021/07/31 01:09:09;;;;;;;13.22;9.18;;;;;;;16.33;85.30;97387.48;1699306;84;21987;-72
2021/07/31 01:11:35;;;;;;;10.65;8.43;;;;;;;16.25;86.23;97381.52;1679300;84;21458;-77
2021/07/31 01:14:02;;;;;;;13.22;8.83;;;;;;;16.22;86.52;97381.35;1698859;84;20942;-72
2021/07/31 01:16:28;;;;;;;13.18;9.58;;;;;;;16.21;87.85;97368.25;1699195;83;21002;-76
2021/07/31 01:18:54;;;;;;;14.10;10.10;;;;;;;16.26;86.00;97376.84;1703601;83;21020;-73
2021/07/31 01:21:44;;;;;;;13.85;8.68;;;;;;;16.40;85.78;97376.56;1707248;84;21838;-78
2021/07/31 01:24:12;;;;;;;14.05;9.70;;;;;;;16.51;85.60;97375.05;1706881;83;21001;-77
2021/07/31 01:26:41;;;;;;;14.87;8.68;;;;;;;16.55;86.28;97369.14;1707167;82;20970;-72
2021/07/31 01:29:07;;;;;;;10.15;7.45;;;;;;;16.56;86.27;97357.86;1707314;83;20963;-78
2021/07/31 01:31:34;;;;;;;11.28;8.80;;;;;;;16.60;86.49;97363.48;1706990;84;21453;-78
2021/07/31 01:34:01;;;;;;;14.18;8.25;;;;;;;16.67;85.09;97364.31;1706785;83;21129;-73
2021/07/31 01:36:27;;;;;;;11.40;7.60;;;;;;;16.69;84.71;97360.70;1706935;83;21025;-73
2021/07/31 01:38:53;;;;;;;12.07;7.78;;;;;;;16.71;84.89;97355.69;1706750;82;20953;-73
2021/07/31 01:41:19;;;;;;;11.18;8.05;;;;;;;16.78;84.44;97346.38;1707232;84;20846;-78
2021/07/31 01:43:45;;;;;;;13.13;8.00;;;;;;;16.82;84.07;97356.86;1706727;83;21350;-72
2021/07/31 01:46:11;;;;;;;11.15;8.90;;;;;;;16.82;83.92;97352.77;1706915;82;21064;-78
2021/07/31 01:48:37;;;;;;;11.48;8.68;;;;;;;16.76;83.95;97346.72;1706791;84;21958;-78
2021/07/31 01:51:03;;;;;;;14.25;8.35;;;;;;;16.80;83.83;97344.09;1707221;83;20945;-74
2021/07/31 01:53:29;;;;;;;14.05;7.62;;;;;;;16.77;83.71;97338.73;1706893;83;20942;-78
2021/07/31 01:55:55;;;;;;;12.07;7.50;;;;;;;16.79;83.78;97336.45;1707010;83;21572;-78
2021/07/31 01:58:21;;;;;;;11.48;8.45;;;;;;;16.79;83.67;97336.45;1706815;82;21014;-78
2021/07/31 02:00:47;;;;;;;11.22;7.22;;;;;;;16.72;83.95;97329.93;1707129;83;20953;-73
2021/07/31 02:03:12;;;;;;;13.70;7.87;;;;;;;16.74;83.72;97322.18;1706801;84;20917;-73
2021/07/31 02:05:38;;;;;;;9.45;7.15;;;;;;;16.76;83.68;97321.30;1686650;84;20851;-78
2021/07/31 02:08:07;;;;;;;10.18;7.40;;;;;;;16.73;83.56;97321.95;1706893;84;21014;-77
2021/07/31 02:10:33;;;;;;;;;;;;;;;16.74;83.45;97320.24;1709470;84;20994;-78
2021/07/31 02:12:59;;;;;;;11.20;8.63;;;;;;;16.62;84.63;97307.87;1706911;84;20156;-78
2021/07/31 02:15:25;;;;;;;11.85;7.47;;;;;;;16.55;84.88;97312.50;1706867;84;20918;-78
2021/07/31 02:17:51;;;;;;;10.75;8.18;;;;;;;16.57;83.75;97302.02;1706676;82;20978;-78
2021/07/31 02:20:17;;;;;;;17.27;7.83;;;;;;;16.56;83.76;97301.00;1714031;82;21102;-77
2021/07/31 02:22:43;;;;;;;15.20;7.45;;;;;;;16.58;83.61;97309.13;1714930;82;21082;-72
2021/07/31 02:25:09;;;;;;;15.55;8.30;;;;;;;16.57;83.63;97311.59;1714978;83;20858;-72
2021/07/31 02:27:35;;;;;;;14.03;7.92;;;;;;;16.55;83.58;97307.04;1686802;84;20966;-72
2021/07/31 02:30:01;;;;;;;13.90;8.03;;;;;;;16.55;84.19;97309.77;1706989;84;20898;-78
2021/07/31 02:32:27;;;;;;;10.95;7.37;;;;;;;16.53;84.08;97306.58;1706923;84;20905;-73
2021/07/31 02:34:53;;;;;;;12.43;7.65;;;;;;;16.45;84.24;97306.66;1686916;84;20983;-72
2021/07/31 02:37:19;;;;;;;8.65;6.97;;;;;;;16.41;84.23;97304.34;1706921;82;20943;-72
2021/07/31 02:39:45;;;;;;;11.40;8.05;;;;;;;16.45;84.03;97303.35;1707067;84;20847;-73
2021/07/31 02:42:11;;;;;;;9.33;7.62;;;;;;;16.48;83.79;97302.67;1707280;82;20866;-78
2021/07/31 02:44:37;;;;;;;12.93;7.70;;;;;;;16.54;83.84;97308.17;1707058;84;21562;-78
2021/07/31 02:47:03;;;;;;;10.70;7.78;;;;;;;16.53;84.30;97305.21;1707037;82;21153;-73
2021/07/31 02:49:29;;;;;;;12.15;7.97;;;;;;;16.55;84.63;97303.50;1707165;84;20962;-78
2021/07/31 02:51:55;;;;;;;14.18;7.70;;;;;;;16.58;84.00;97303.66;1707158;84;20897;-77
2021/07/31 02:54:21;;;;;;;15.65;7.50;;;;;;;16.62;84.19;97296.36;1707241;83;20878;-77
2021/07/31 02:56:47;;;;;;;10.88;7.70;;;;;;;16.71;83.46;97297.67;1707074;84;20874;-78
2021/07/31 02:59:13;;;;;;;9.43;7.17;;;;;;;16.74;83.15;97300.30;1706975;83;21011;-78
2021/07/31 03:01:39;;;;;;;12.65;7.87;;;;;;;16.76;82.92;97298.05;1707134;83;20929;-78
2021/07/31 03:04:04;;;;;;;17.90;8.35;;;;;;;16.71;82.88;97302.34;1706783;84;20887;-78
2021/07/31 03:06:30;;;;;;;13.22;7.78;;;;;;;16.61;83.25;97302.97;1707001;83;20870;-78
2021/07/31 03:08:56;;;;;;;16.75;9.00;;;;;;;16.62;84.07;97303.77;1706971;82;21001;-73
2021/07/31 03:11:23;;;;;;;9.90;7.83;;;;;;;16.63;83.51;97304.80;1707123;84;21721;-73
2021/07/31 03:13:49;;;;;;;11.38;8.13;;;;;;;16.58;84.71;97298.75;1686521;84;20974;-73
2021/07/31 03:16:14;;;;;;;11.93;7.87;;;;;;;16.60;84.15;97299.20;1707107;84;20934;-74
2021/07/31 03:18:42;;;;;;;11.78;8.20;;;;;;;16.64;83.89;97300.12;1707471;82;20902;-77
2021/07/31 03:21:08;;;;;;;11.12;7.37;;;;;;;16.69;83.85;97301.89;1715285;83;21060;-78
2021/07/31 03:23:34;;;;;;;11.85;8.08;;;;;;;16.71;83.42;97305.08;1690754;83;21896;-78
2021/07/31 03:26:00;;;;;;;12.13;8.20;;;;;;;16.76;82.90;97308.98;1707035;83;20866;-79
2021/07/31 03:28:28;;;;;;;9.45;6.95;;;;;;;16.77;82.75;97309.22;1706856;83;21360;-74
2021/07/31 03:30:54;;;;;;;11.20;7.87;;;;;;;16.79;82.62;97309.10;1707073;84;21371;-78
2021/07/31 03:33:20;;;;;;;13.75;7.45;;;;;;;16.82;82.68;97305.68;1707106;84;21007;-73
2021/07/31 03:35:46;;;;;;;10.40;7.10;;;;;;;16.85;82.67;97309.70;1710862;83;21701;-73
2021/07/31 03:38:12;;;;;;;14.28;7.58;;;;;;;16.86;82.51;97309.36;1706783;84;20949;-78
2021/07/31 03:40:38;;;;;;;10.15;6.97;;;;;;;16.86;82.43;97309.36;1707304;82;20870;-78
2021/07/31 03:43:04;;;;;;;11.12;7.87;;;;;;;16.86;82.57;97306.62;1707103;83;21413;-78
2021/07/31 03:45:30;;;;;;;13.30;8.10;;;;;;;16.91;82.44;97303.66;1706955;83;21016;-78
2021/07/31 03:47:56;;;;;;;11.25;8.25;;;;;;;17.02;82.10;97301.31;1706978;83;21061;-78
2021/07/31 03:50:22;;;;;;;11.38;9.08;;;;;;;17.04;81.68;97296.28;1707235;84;20882;-79
2021/07/31 03:52:48;;;;;;;11.73;9.03;;;;;;;17.02;82.29;97297.20;1707018;82;21543;-78
2021/07/31 03:55:14;;;;;;;11.60;7.92;;;;;;;16.99;82.78;97288.28;1707210;83;20882;-73
2021/07/31 03:57:40;;;;;;;10.40;8.08;;;;;;;17.00;83.27;97293.19;1686804;84;21093;-73
2021/07/31 04:00:06;;;;;;;14.18;7.28;;;;;;;17.02;83.25;97295.03;1707264;84;21366;-78
2021/07/31 04:02:33;;;;;;;12.47;7.08;;;;;;;17.08;82.23;97299.93;1706918;84;20907;-73
2021/07/31 04:04:59;;;;;;;13.65;7.83;;;;;;;17.04;83.29;97294.92;1686784;84;21002;-79
2021/07/31 04:07:25;;;;;;;14.05;8.35;;;;;;;17.07;83.20;97300.27;1706841;84;20963;-78
2021/07/31 04:09:52;;;;;;;9.65;7.70;;;;;;;17.14;83.21;97299.16;1707233;84;20949;-74
2021/07/31 04:12:18;;;;;;;10.50;7.40;;;;;;;17.14;83.26;97300.52;1707128;84;21223;-78
2021/07/31 04:14:44;;;;;;;14.03;8.18;;;;;;;17.18;83.14;97299.52;1706811;82;20831;-73
2021/07/31 04:17:11;;;;;;;12.45;8.28;;;;;;;17.25;82.87;97304.41;1707064;82;20914;-77
2021/07/31 04:19:38;;;;;;;15.95;9.43;;;;;;;17.39;82.41;97309.57;1709377;83;20989;-74
2021/07/31 04:22:04;;;;;;;12.33;9.08;;;;;;;17.44;82.18;97307.42;1710294;83;21081;-73
2021/07/31 04:24:30;;;;;;;10.90;8.43;;;;;;;17.52;81.87;97307.08;1706892;83;21915;-74
2021/07/31 04:26:56;;;;;;;9.48;8.05;;;;;;;17.57;81.80;97310.95;1706945;83;20843;-77
2021/07/31 04:29:22;;;;;;;9.18;7.15;;;;;;;17.62;81.69;97307.99;1706973;82;20921;-74
2021/07/31 04:31:48;;;;;;;9.85;7.80;;;;;;;17.70;81.31;97309.84;1706779;82;20998;-74
2021/07/31 04:34:15;;;;;;;10.23;7.47;;;;;;;17.76;80.50;97316.67;1706981;83;20921;-74
2021/07/31 04:36:41;;;;;;;15.68;7.58;;;;;;;17.81;80.31;97321.72;1707184;83;21978;-74
2021/07/31 04:39:07;;;;;;;11.65;7.70;;;;;;;17.88;80.04;97314.52;1686520;84;20966;-73
2021/07/31 04:41:33;;;;;;;7.72;6.92;;;;;;;17.94;79.50;97317.80;1707175;82;21572;-77
2021/07/31 04:43:59;;;;;;;9.68;7.00;;;;;;;17.95;79.02;97319.42;1706771;82;20992;-77
2021/07/31 04:46:26;;;;;;;9.85;7.00;;;;;;;17.97;78.78;97315.77;1707211;83;21430;-74
2021/07/31 04:48:51;;;;;;;10.08;6.62;;;;;;;17.94;78.71;97322.71;1706699;82;21097;-77
2021/07/31 04:51:17;;;;;;;13.68;7.28;;;;;;;17.92;78.82;97324.20;1707145;83;21012;-74
2021/07/31 04:53:43;;;;;;;16.73;7.60;;;;;;;17.87;79.39;97321.72;1706800;84;20847;-74
2021/07/31 04:56:09;;;;;;;13.20;9.08;;;;;;;17.89;79.88;97323.53;1707294;82;20882;-74
2021/07/31 04:58:35;;;;;;;11.78;8.25;;;;;;;17.95;80.01;97323.54;1706770;84;20902;-74
2021/07/31 05:01:01;;;;;;;11.40;7.40;;;;;;;17.95;80.21;97323.54;1707175;84;22005;-74
2021/07/31 05:03:28;;;;;;;9.65;7.45;;;;;;;17.92;80.19;97329.69;1706869;84;20874;-76
2021/07/31 05:05:54;;;;;;;13.03;8.93;;;;;;;17.90;80.89;97330.61;1707074;84;21053;-78
2021/07/31 05:08:20;;;;;;;11.68;7.95;;;;;;;17.92;80.86;97334.59;1686661;84;20842;-74
2021/07/31 05:10:48;;;;;;;10.50;8.10;;;;;;;17.89;81.61;97332.55;1707011;84;20902;-77
2021/07/31 05:13:14;;;;;;;9.78;7.97;;;;;;;17.88;81.29;97332.91;1706128;84;21804;-78
2021/07/31 05:15:42;;;;;;;10.95;8.93;;;;;;;17.85;81.51;97332.20;1706913;84;20827;-78
2021/07/31 05:18:09;;;;;;;12.58;8.88;;;;;;;17.89;80.95;97335.30;1706778;82;21116;-74
2021/07/31 05:20:39;;;;;;;11.45;8.00;;;;;;;17.94;81.31;97336.41;1712110;83;20934;-77
2021/07/31 05:23:05;;;;;;;11.90;8.35;;;;;;;17.98;81.10;97341.45;1712447;82;20969;-74
2021/07/31 05:25:31;;;;;;;15.53;9.28;;;;;;;17.98;81.50;97335.97;1717035;83;21237;-73
2021/07/31 05:27:57;;;;;;;11.75;8.38;;;;;;;17.93;82.04;97342.25;1711969;82;21160;-76
2021/07/31 05:30:23;;;;;;;12.70;7.53;;;;;;;17.88;83.17;97347.98;1707142;82;20866;-76
2021/07/31 05:32:49;;;;;;;9.95;7.80;;;;;;;17.88;82.75;97348.77;1706896;83;20839;-73
2021/07/31 05:35:15;;;;;;;11.10;7.67;;;;;;;17.90;82.01;97353.33;1706876;82;21009;-73
2021/07/31 05:37:41;;;;;;;11.70;8.15;;;;;;;17.87;82.68;97358.14;1707013;83;22002;-76
2021/07/31 05:40:08;;;;;;;10.28;8.25;;;;;;;17.82;82.43;97356.19;1706595;82;20874;-73
2021/07/31 05:42:34;;;;;;;8.68;7.50;;;;;;;17.78;82.46;97355.29;1706911;83;20967;-73
2021/07/31 05:45:02;;;;;;;13.32;8.10;;;;;;;17.75;83.20;97355.38;1706799;82;20921;-73
2021/07/31 05:47:28;;;;;;;17.43;9.37;;;;;;;17.68;84.81;97360.02;1707183;84;21453;-77
2021/07/31 05:49:59;;;;;;;12.65;8.10;;;;;;;17.70;83.98;97355.05;1706639;84;21311;-73
2021/07/31 05:52:26;;;;;;;12.73;8.15;;;;;;;17.71;84.32;97353.91;1706881;83;20982;-77
2021/07/31 05:54:55;;;;;;;13.40;8.83;;;;;;;17.76;83.90;97353.66;1706921;84;20982;-73
2021/07/31 05:57:22;;;;;;;9.43;7.78;;;;;;;17.80;85.92;97359.84;1706891;84;21415;-77
2021/07/31 05:59:48;;;;;;;10.78;7.62;;;;;;;17.91;86.21;97356.87;1706809;83;21009;-73
2021/07/31 06:02:14;;;;;;;11.48;7.67;;;;;;;17.97;85.29;97362.36;1707041;84;20942;-76
2021/07/31 06:04:40;;;;;;;9.25;7.67;;;;;;;17.98;85.63;97365.33;1706820;83;20988;-73
2021/07/31 06:07:07;;;;;;;14.75;8.13;;;;;;;17.99;86.27;97367.72;1706947;82;20850;-77
2021/07/31 06:09:38;;;;;;;11.83;8.13;;;;;;;18.05;86.05;97373.77;1706716;82;20971;-77
2021/07/31 06:12:05;;;;;;;13.50;7.75;;;;;;;18.07;85.87;97383.81;1707070;84;21577;-73
2021/07/31 06:14:36;;;;;;;6.62;4.53;;;;;;;18.19;85.74;97381.05;1706877;84;21071;-77
2021/07/31 06:17:02;;;;;;;11.88;7.50;;;;;;;18.44;87.48;97379.07;1706919;84;21140;-74
2021/07/31 06:19:29;;;;;;;9.00;6.65;;;;;;;18.59;87.75;97377.56;1706806;84;21037;-73
2021/07/31 06:21:56;;;;;;;12.78;7.40;;;;;;;18.70;88.38;97373.20;1707074;82;21013;-78
2021/07/31 06:24:22;;;;;;;8.75;6.70;;;;;;;18.76;88.10;97371.82;1706890;82;20950;-78
2021/07/31 06:26:48;;;;;;;7.55;5.53;;;;;;;18.84;87.86;97386.55;1707027;82;21104;-78
2021/07/31 06:29:15;;;;;;;10.75;7.03;;;;;;;18.95;88.50;97379.41;1706722;83;20878;-75
2021/07/31 06:31:41;;;;;;;9.65;5.42;;;;;;;18.99;88.13;97386.37;1707013;84;21486;-73
2021/07/31 06:34:07;;;;;;;12.33;7.60;;;;;;;19.10;88.73;97393.75;1706916;82;20973;-78
2021/07/31 06:36:34;;;;;;;6.47;4.42;;;;;;;19.14;88.41;97392.47;1707118;83;20958;-78
2021/07/31 06:39:09;;;;;;;10.40;6.80;;;;;;;19.28;88.30;97396.98;1706696;83;21940;-74
2021/07/31 06:41:35;;;;;;;9.00;6.37;;;;;;;19.33;88.07;97404.98;1706963;83;20970;-73
2021/07/31 06:44:01;;;;;;;8.38;5.15;;;;;;;19.42;87.69;97416.60;1706718;82;20862;-74
2021/07/31 06:46:28;;;;;;;7.87;5.35;;;;;;;19.59;87.77;97418.83;1707067;82;21065;-73
2021/07/31 06:48:54;;;;;;;8.18;6.28;;;;;;;19.64;87.47;97413.06;1706787;83;21017;-73
2021/07/31 06:51:21;;;;;;;7.33;5.15;;;;;;;19.69;87.45;97421.05;1706894;84;21031;-79
2021/07/31 06:53:48;;;;;;;6.60;4.85;;;;;;;19.74;87.34;97430.42;1706645;82;21368;-73
2021/07/31 06:56:14;;;;;;;7.95;5.25;;;;;;;19.77;87.10;97430.28;1706985;83;20982;-74
2021/07/31 06:58:40;;;;;;;6.62;5.65;;;;;;;19.83;86.96;97432.42;1706812;83;22401;-79
2021/07/31 07:01:14;;;;;;;8.33;3.75;;;;;;;19.91;85.59;97429.25;1706916;84;20973;-74
2021/07/31 07:03:41;;;;;;;6.00;5.40;;;;;;;19.90;85.78;97438.66;1706835;83;21419;-78
2021/07/31 07:06:08;;;;;;;4.97;3.25;;;;;;;19.86;85.74;97441.33;1706945;82;21013;-73
2021/07/31 07:08:34;;;;;;;6.40;5.00;;;;;;;19.96;85.08;97442.16;1706725;82;21348;-78
2021/07/31 07:11:01;;;;;;;6.08;5.40;;;;;;;19.90;84.59;97443.57;1706849;83;20847;-78
2021/07/31 07:13:27;;;;;;;10.43;8.15;;;;;;;19.95;84.65;97453.52;1706820;82;20910;-74
2021/07/31 07:15:53;;;;;;;5.72;4.90;;;;;;;19.93;84.74;97456.63;1706939;83;21136;-78
2021/07/31 07:18:19;;;;;;;7.97;6.33;;;;;;;19.97;84.41;97456.70;1706940;84;20989;-77
2021/07/31 07:20:45;;;;;;;7.58;5.47;;;;;;;20.03;84.19;97451.75;1705890;82;20937;-78
2021/07/31 07:23:12;;;;;;;8.15;6.50;;;;;;;20.08;84.26;97464.67;1699240;82;21022;-78
2021/07/31 07:25:41;;;;;;;12.07;8.83;;;;;;;20.15;84.22;97468.95;1699087;84;21005;-73
2021/07/31 07:28:05;;;;;;;10.05;7.22;;;;;;;20.15;84.34;97474.45;1699305;84;21391;-78
2021/07/31 07:30:31;;;;;;;13.70;7.50;;;;;;;20.13;84.34;97477.34;1698937;84;20839;-79
2021/07/31 07:32:57;;;;;;;14.87;9.05;;;;;;;20.15;84.27;97482.70;1699322;84;20974;-78
2021/07/31 07:35:23;;;;;;;10.30;9.15;;;;;;;20.16;84.35;97481.54;1699059;84;21442;-74
2021/07/31 07:37:49;;;;;;;10.58;7.03;;;;;;;20.22;84.48;97484.83;1678746;84;21560;-79
2021/07/31 07:40:15;;;;;;;13.03;7.35;;;;;;;20.23;84.37;97483.09;1699034;84;21036;-74
2021/07/31 07:42:41;;;;;;;8.50;6.72;;;;;;;20.24;84.39;97487.44;1699273;84;20886;-79
2021/07/31 07:45:08;;;;;;;9.30;7.15;;;;;;;20.39;84.54;97486.42;1699223;84;20977;-78
2021/07/31 07:47:34;;;;;;;9.13;6.87;;;;;;;20.42;84.45;97486.49;1699147;84;21356;-74
2021/07/31 07:50:05;;;;;;;8.45;7.37;;;;;;;20.44;84.53;97488.94;1699102;82;21022;-79
2021/07/31 07:52:31;;;;;;;8.73;7.60;;;;;;;20.47;85.69;97477.21;1699130;84;21712;-78
2021/07/31 07:54:57;;;;;;;10.48;7.62;;;;;;;20.58;85.19;97483.75;1699039;82;20878;-73
2021/07/31 07:57:23;;;;;;;10.98;8.80;;;;;;;20.66;84.86;97488.84;1699309;84;20922;-74
2021/07/31 07:59:49;;;;;;;11.53;8.63;;;;;;;20.61;84.50;97487.77;1698927;82;21371;-73
2021/07/31 08:02:15;;;;;;;14.55;9.68;;;;;;;20.58;83.97;97485.70;1699243;84;20859;-73
2021/07/31 08:04:41;;;;;;;14.80;9.58;;;;;;;20.48;83.85;97482.93;1699161;84;21314;-73
2021/07/31 08:07:07;;;;;;;11.65;8.70;;;;;;;20.39;83.84;97487.80;1699225;84;20919;-73
2021/07/31 08:09:37;;;;;;;12.47;9.23;;;;;;;20.41;84.24;97479.39;1699201;84;20970;-73
2021/07/31 08:12:01;;;;;;;13.75;8.48;;;;;;;20.44;84.11;97482.86;1699237;83;20979;-78
2021/07/31 08:14:27;;;;;;;14.40;10.28;;;;;;;20.46;84.10;97482.50;1699316;84;21018;-78
2021/07/31 08:16:53;;;;;;;11.15;9.75;;;;;;;20.44;84.12;97480.69;1699324;84;21325;-74
2021/07/31 08:19:19;;;;;;;10.82;9.20;;;;;;;20.48;84.35;97482.35;1699205;84;21619;-79
2021/07/31 08:21:45;;;;;;;12.43;8.90;;;;;;;20.58;84.95;97482.38;1706787;83;20929;-73
2021/07/31 08:24:11;;;;;;;11.63;8.15;;;;;;;20.62;84.62;97482.48;1707674;83;20946;-74
2021/07/31 08:26:37;;;;;;;13.20;9.75;;;;;;;20.73;84.49;97482.92;1707086;83;20851;-78
2021/07/31 08:29:02;;;;;;;12.20;9.10;;;;;;;20.71;84.28;97470.11;1706812;83;21307;-79
2021/07/31 08:31:28;;;;;;;11.10;8.33;;;;;;;20.75;84.38;97472.93;1707034;83;21568;-74
2021/07/31 08:33:54;;;;;;;12.28;9.03;;;;;;;20.86;84.36;97465.72;1706716;84;20950;-74
2021/07/31 08:36:20;;;;;;;14.53;9.95;;;;;;;21.00;84.23;97466.01;1707199;84;20917;-79
2021/07/31 08:38:46;;;;;;;16.35;11.45;;;;;;;21.12;84.12;97451.32;1706828;84;20961;-74
2021/07/31 08:41:14;;;;;;;17.65;13.18;;;;;;;21.23;84.08;97452.91;1686719;84;21046;-74
2021/07/31 08:43:40;;;;;;;9.93;8.83;;;;;;;21.33;83.92;97453.14;1707104;84;20961;-74
2021/07/31 08:46:07;;;;;;;10.40;8.13;;;;;;;21.40;83.81;97451.91;1706736;84;20859;-78
2021/07/31 08:48:33;;;;;;;11.93;8.40;;;;;;;21.32;83.82;97440.53;1706840;83;21339;-73
2021/07/31 08:51:02;;;;;;;12.40;9.38;;;;;;;21.35;84.09;97435.66;1706755;82;20930;-78
2021/07/31 08:53:29;;;;;;;10.68;8.43;;;;;;;21.33;84.13;97426.17;1706801;84;21147;-74
2021/07/31 08:55:58;;;;;;;13.50;9.20;;;;;;;21.29;84.17;97426.70;1706755;84;21021;-74
2021/07/31 08:58:24;;;;;;;10.95;8.05;;;;;;;21.27;84.03;97425.66;1706967;82;20962;-78
2021/07/31 09:00:53;;;;;;;12.10;6.70;;;;;;;21.30;84.01;97422.20;1706882;84;20862;-78
2021/07/31 09:03:20;;;;;;;12.85;8.03;;;;;;;21.24;84.06;97416.72;1706067;84;20985;-74
2021/07/31 09:05:46;;;;;;;9.80;8.25;;;;;;;21.20;84.20;97406.23;1706755;82;21260;-79
2021/07/31 09:08:12;;;;;;;9.63;7.03;;;;;;;21.30;84.77;97411.17;1706859;84;20896;-73
2021/07/31 09:10:41;;;;;;;10.00;6.83;;;;;;;21.40;84.86;97411.16;1706887;83;20953;-74
2021/07/31 09:13:17;;;;;;;10.60;9.05;;;;;;;21.45;84.35;97419.14;1706682;84;21343;-73
2021/07/31 09:15:47;;;;;;;8.80;7.15;;;;;;;21.44;84.36;97427.16;1706795;83;20974;-73
2021/07/31 09:18:30;;;;;;;9.48;7.83;;;;;;;21.43;84.09;97425.58;1706844;82;21111;-79
2021/07/31 09:21:05;;;;;;;10.18;7.85;;;;;;;21.45;83.94;97431.54;1705434;83;21002;-73
2021/07/31 09:23:45;;;;;;;8.33;6.67;;;;;;;21.51;83.82;97439.70;1698906;84;20962;-78
2021/07/31 09:26:25;;;;;;;7.58;5.72;;;;;;;21.50;83.88;97449.14;1698947;83;21006;-74
2021/07/31 09:29:06;;;;;;;7.55;6.17;;;;;;;21.50;83.53;97445.00;1699117;84;21422;-74
2021/07/31 09:31:32;;;;;;;9.80;6.90;;;;;;;21.55;83.27;97446.68;1698966;83;20963;-79
2021/07/31 09:34:00;;;;;;;27.62;21.52;;;;;;;21.64;82.90;97442.52;1698833;83;21033;-74
2021/07/31 09:36:37;;;;;;;17.30;10.80;;;;;;;21.74;82.73;97436.19;1699189;83;20962;-74
2021/07/31 09:39:06;;;;;;;16.43;14.90;;;;;;;21.83;82.26;97441.67;1699107;84;21404;-77
2021/07/31 09:41:36;;;;;;;17.42;15.72;;;;;;;21.86;81.87;97440.92;1698576;84;20943;-79
2021/07/31 09:44:15;;;;;;;10.28;8.80;;;;;;;21.84;81.75;97437.75;1699027;83;21077;-79
2021/07/31 09:46:47;;;;;;;21.60;15.30;;;;;;;21.91;81.76;97438.45;1698893;83;21435;-79
2021/07/31 09:49:19;;;;;;;11.80;9.35;;;;;;;21.93;81.45;97431.98;1699269;84;20979;-78
2021/07/31 09:51:46;;;;;;;8.98;7.05;;;;;;;21.98;81.42;97430.89;1699140;84;21450;-74
2021/07/31 09:54:17;;;;;;;19.53;10.47;;;;;;;22.09;81.67;97434.65;1679387;84;21025;-75
2021/07/31 09:56:55;;;;;;;10.78;7.15;;;;;;;22.28;81.28;97428.24;1699240;84;21142;-78
2021/07/31 09:59:22;;;;;;;12.35;8.53;;;;;;;22.64;80.85;97426.22;1699512;84;20978;-74
2021/07/31 10:01:59;;;;;;;9.10;6.67;;;;;;;22.64;80.85;97426.22;1699182;82;21414;-74
2021/07/31 10:04:25;;;;;;;8.73;6.20;;;;;;;22.71;80.11;97418.63;1698999;84;20963;-74
2021/07/31 10:06:51;;;;;;;7.03;5.67;;;;;;;22.81;80.33;97417.37;1699275;84;20898;-78
2021/07/31 10:09:17;;;;;;;7.15;5.85;;;;;;;22.87;79.46;97415.13;1699164;84;21298;-79
2021/07/31 10:11:44;;;;;;;11.90;7.15;;;;;;;22.89;79.05;97406.45;1698862;84;21591;-74
2021/07/31 10:14:10;;;;;;;10.63;6.12;;;;;;;22.99;79.25;97398.91;1699188;84;20979;-79
2021/07/31 10:16:46;;;;;;;7.03;5.67;;;;;;;23.16;78.95;97395.56;1699000;84;20930;-78
2021/07/31 10:19:12;;;;;;;7.10;5.75;;;;;;;23.40;77.94;97397.58;1699327;84;21407;-79
2021/07/31 10:21:58;;;;;;;5.85;4.72;;;;;;;23.67;77.12;97389.98;1679149;84;21093;-75
2021/07/31 10:24:19;;;;;;;6.05;4.60;;;;;;;23.81;75.80;97386.77;1696659;84;20982;-77
2021/07/31 10:27:18;;;;;;;5.47;4.47;;;;;;;24.06;74.89;97385.59;1698966;83;21372;-74
2021/07/31 10:29:45;;;;;;;5.22;4.58;;;;;;;24.20;73.79;97384.91;1699184;82;20907;-79
2021/07/31 10:32:41;;;;;;;5.22;4.12;;;;;;;24.46;73.13;97383.34;1702715;84;20974;-74
2021/07/31 10:35:10;;;;;;;4.92;4.42;;;;;;;24.66;72.26;97378.30;1699049;84;21060;-78
2021/07/31 10:37:40;;;;;;;5.78;4.55;;;;;;;24.51;71.25;97383.55;1696197;84;20916;-79
2021/07/31 10:40:11;;;;;;;4.62;4.15;;;;;;;24.61;71.85;97376.48;1699234;84;20954;-79
2021/07/31 10:42:54;;;;;;;7.72;4.92;;;;;;;24.69;70.59;97378.11;1695901;84;21352;-74
2021/07/31 10:45:23;;;;;;;5.42;4.53;;;;;;;24.67;70.40;97374.94;1698882;83;21434;-74
2021/07/31 10:47:53;;;;;;;5.17;3.83;;;;;;;24.80;70.19;97367.89;1699080;84;21309;-79
2021/07/31 10:50:29;;;;;;;5.58;4.55;;;;;;;25.11;68.95;97364.26;1698826;84;21010;-75
2021/07/31 10:53:04;;;;;;;6.20;4.35;;;;;;;25.39;68.12;97369.11;1699218;83;21407;-75
2021/07/31 10:55:44;;;;;;;5.22;4.28;;;;;;;25.50;67.54;97361.59;1698203;84;20963;-78
2021/07/31 10:58:17;;;;;;;9.25;4.72;;;;;;;25.51;67.06;97354.86;1699178;84;20959;-80
2021/07/31 11:00:52;;;;;;;6.72;3.83;;;;;;;25.49;67.60;97362.79;1699248;84;21309;-74
2021/07/31 11:03:25;;;;;;;5.53;3.50;;;;;;;25.73;66.38;97352.35;1699131;84;21002;-74
2021/07/31 11:06:06;;;;;;;6.53;3.83;;;;;;;25.58;65.81;97354.88;1699145;84;21050;-74
2021/07/31 11:08:34;;;;;;;5.35;4.25;;;;;;;25.70;65.22;97353.69;1699223;84;20970;-74
2021/07/31 11:11:03;;;;;;;6.28;3.77;;;;;;;25.91;65.29;97354.33;1699295;83;21506;-76
2021/07/31 11:13:40;;;;;;;4.47;3.35;;;;;;;26.36;63.04;97345.75;1699156;84;21824;-75
2021/07/31 11:16:17;;;;;;;5.17;3.35;;;;;;;26.93;63.03;97349.17;1699451;84;20939;-74
2021/07/31 11:18:44;;;;;;;8.35;3.72;;;;;;;27.09;62.14;97347.92;1699065;84;21009;-74
2021/07/31 11:21:26;;;;;;;4.33;3.45;;;;;;;27.43;60.88;97343.95;1699169;84;21427;-74
2021/07/31 11:24:03;;;;;;;2.92;2.60;;;;;;;27.32;59.59;97348.20;1697711;84;20963;-74
2021/07/31 11:26:50;;;;;;;6.17;3.42;;;;;;;27.14;59.01;97344.12;1699201;84;21164;-78
2021/07/31 11:29:19;;;;;;;3.92;3.00;;;;;;;26.85;59.76;97344.84;1699241;84;20959;-78